14:50
Airports
History
Links
Donate
Help keep this website running!
PayPal
Bitcoin
This page is community maintained. The information is intended for PC simulator navigation or reference.
Always use approved charts for navigation.
Y48
Belmond MuniUpdated 28-Jul-2013
Belmond Muni (Y48)
Belmond, Iowa, United States (50421)
4
Lat/Lng:42° 51' 9.89" N / 93° 35' 40.75" W
42.852747 / -93.594653
Elevation:1201'ft / 366mMSL
Declination:E004°
ID / ICAO:Y48
FAA:Y48
Runways:1
Longest:(17-35) 981.7m / 3,221ft Grass
Distance To
Airport ID:
Nearby VORs <50NM
Nearby NDBs
Nearby WeatherUpdated 08-22-17 14:35 GMT
Nearby weather at KCAV, Clarion Muni located 11.4 nautical miles from Y48
Altimeter: 30.08
Visibility: 10.0 statute miles
Wind: 11 knots (340°)
Temp: 17°c 63°f
Humidity: 88.0%

METAR: KCAV 221435Z AUTO 34011G17KT 10SM CLR 17/15 A3008 RMK AO2 PWINO

(Powered by phpweather)
Runway 17 / 35
Dimensions:981.7 x 29m 3221' x 95'ft
Surface:Grass
Edge Lights:Medium intensity
Runway 17 [A]Runway 35 [B]
Heading:169°MH  173°TH349°MH   353°TH
Lat:
Lng:
42° 51' 25.82"N
93° 35' 43.04"W
42° 50' 53.96"N
93° 35' 38.47"W
User Notes and Comments
Google Map
Nearby Airports
(U) Clarion Muni 11.4 NM
KCAV (WX) SW 227°
(R) Beeds Lake 18.6 NM
IA31 ESE 108°
(U) Eagle Grove Muni 19.1 NM
KEAG WSW 238°
(U) Hampton Muni 20.7 NM
KHPT ESE 115°
4 Dads Field 20.9 NM
IA33 ENE 58°
(R) Flying S Ranch 21.2 NM
5IA6 W 265°
4 Newbrough 21.5 NM
1IA9 NW 313°
VFR Chart
Flight Planning at SkyVector.com